createdAt,value
2022-09-15T00:00:35.918Z,82.19
2022-09-15T00:02:57.813Z,82.42
2022-09-15T00:05:19.906Z,82.38
2022-09-15T00:07:41.825Z,82.46
2022-09-15T00:10:06.601Z,82.96
2022-09-15T00:12:28.468Z,83.02
2022-09-15T00:14:50.301Z,83.01
2022-09-15T00:17:12.240Z,83.03
2022-09-15T00:19:34.092Z,83.28
2022-09-15T00:21:55.876Z,83.28
2022-09-15T00:24:17.652Z,83.33
2022-09-15T00:26:39.529Z,83.40
2022-09-15T00:29:02.562Z,83.35
2022-09-15T00:31:27.547Z,83.68
2022-09-15T00:33:52.874Z,83.60
2022-09-15T00:36:15.950Z,83.74
2022-09-15T00:38:38.720Z,83.76
2022-09-15T00:41:01.834Z,83.73
2022-09-15T00:43:51.189Z,83.98
2022-09-15T00:46:15.041Z,83.92
2022-09-15T00:48:44.241Z,84.01
2022-09-15T00:51:10.265Z,84.14
2022-09-15T00:53:35.550Z,84.06
2022-09-15T00:55:59.462Z,84.18
2022-09-15T00:58:33.388Z,84.00
2022-09-15T01:01:02.082Z,84.19
2022-09-15T01:03:27.224Z,84.21
2022-09-15T01:05:57.845Z,84.16
2022-09-15T01:08:33.271Z,84.13
2022-09-15T01:10:56.745Z,84.07
2022-09-15T01:13:18.798Z,84.16
2022-09-15T01:15:56.488Z,84.00
2022-09-15T01:18:47.099Z,84.20
2022-09-15T01:21:36.639Z,84.19
2022-09-15T01:24:35.106Z,84.05
2022-09-15T01:27:30.895Z,83.86
2022-09-15T01:30:02.451Z,84.15
2022-09-15T01:33:00.945Z,84.31
2022-09-15T01:36:03.744Z,84.44
2022-09-15T01:39:01.054Z,84.53
2022-09-15T01:41:48.332Z,84.90
2022-09-15T01:44:22.236Z,84.71
2022-09-15T01:46:49.772Z,84.84
2022-09-15T01:49:19.426Z,84.79
2022-09-15T01:51:46.024Z,84.97
2022-09-15T01:54:10.371Z,84.73
2022-09-15T01:56:32.532Z,84.83
2022-09-15T01:58:54.543Z,84.71
2022-09-15T02:01:32.142Z,84.79
2022-09-15T02:04:15.784Z,84.85
2022-09-15T02:07:11.742Z,84.96
2022-09-15T02:09:51.035Z,84.38
2022-09-15T02:12:27.445Z,84.53
2022-09-15T02:15:16.639Z,84.70
2022-09-15T02:17:48.239Z,84.38
2022-09-15T02:20:25.390Z,84.80
2022-09-15T02:22:55.748Z,84.37
2022-09-15T02:25:28.983Z,84.49
2022-09-15T02:27:57.395Z,84.18
2022-09-15T02:30:21.395Z,84.25
2022-09-15T02:32:56.224Z,84.24
2022-09-15T02:35:18.558Z,84.30
2022-09-15T02:37:40.918Z,84.25
2022-09-15T02:40:04.786Z,84.01
2022-09-15T02:42:32.752Z,83.84
2022-09-15T02:44:55.546Z,83.81
2022-09-15T02:47:17.333Z,83.75
2022-09-15T02:49:39.151Z,83.74
2022-09-15T02:52:00.986Z,83.78
2022-09-15T02:54:22.766Z,83.74
2022-09-15T02:56:45.148Z,83.64
2022-09-15T02:59:07.753Z,83.70
2022-09-15T03:01:32.239Z,83.74
2022-09-15T03:03:53.934Z,83.68
2022-09-15T03:06:18.521Z,83.68
2022-09-15T03:08:40.233Z,83.82
2022-09-15T03:11:02.003Z,83.89
2022-09-15T03:13:24.017Z,83.75
2022-09-15T03:15:45.836Z,83.81
2022-09-15T03:18:07.672Z,83.74
2022-09-15T03:20:30.315Z,83.78
2022-09-15T03:22:52.139Z,83.72
2022-09-15T03:25:14.182Z,83.61
2022-09-15T03:27:36.581Z,83.77
2022-09-15T03:29:58.621Z,83.70
2022-09-15T03:32:20.383Z,83.67
2022-09-15T03:34:42.448Z,83.78
2022-09-15T03:37:04.455Z,83.89
2022-09-15T03:39:26.525Z,83.92
2022-09-15T03:41:48.288Z,83.77
2022-09-15T03:44:10.112Z,83.85
2022-09-15T03:46:32.146Z,83.95
2022-09-15T03:48:53.915Z,84.11
2022-09-15T03:51:15.837Z,84.28
2022-09-15T03:53:41.991Z,84.08
2022-09-15T03:56:18.350Z,84.16
2022-09-15T03:58:40.195Z,84.29
2022-09-15T04:01:02.014Z,84.30
2022-09-15T04:03:23.920Z,84.14
2022-09-15T04:05:45.700Z,84.36
2022-09-15T04:08:09.497Z,84.42
2022-09-15T04:10:31.752Z,84.24
2022-09-15T04:12:54.227Z,84.22
2022-09-15T04:15:16.150Z,84.29
2022-09-15T04:17:37.953Z,84.30
2022-09-15T04:20:01.255Z,84.23
2022-09-15T04:22:23.126Z,84.16
2022-09-15T04:24:45.132Z,84.25
2022-09-15T04:27:07.169Z,84.13
2022-09-15T04:29:28.989Z,84.07
2022-09-15T04:31:53.021Z,84.14
2022-09-15T04:34:14.900Z,84.06
2022-09-15T04:36:37.324Z,84.12
2022-09-15T04:38:59.239Z,83.94
2022-09-15T04:41:22.131Z,83.92
2022-09-15T04:43:44.320Z,84.10
2022-09-15T04:46:08.432Z,84.09
2022-09-15T04:48:31.821Z,84.07
2022-09-15T04:50:54.727Z,84.05
2022-09-15T04:53:17.320Z,84.09
2022-09-15T04:55:39.504Z,83.87
2022-09-15T04:58:02.703Z,83.97
2022-09-15T05:00:27.085Z,84.02
2022-09-15T05:02:49.035Z,83.98
2022-09-15T05:05:10.834Z,83.91
2022-09-15T05:07:32.687Z,83.84
2022-09-15T05:09:54.654Z,83.72
2022-09-15T05:12:17.440Z,83.69
2022-09-15T05:14:39.278Z,83.72
2022-09-15T05:17:01.267Z,83.65
2022-09-15T05:19:23.545Z,83.58
2022-09-15T05:21:45.444Z,83.62
2022-09-15T05:24:07.493Z,83.34
2022-09-15T05:26:30.106Z,83.38
2022-09-15T05:28:52.460Z,83.20
2022-09-15T05:31:27.978Z,83.21
2022-09-15T05:33:52.723Z,83.01
2022-09-15T05:36:15.860Z,83.17
2022-09-15T05:38:37.811Z,83.29
2022-09-15T05:41:04.471Z,83.72
2022-09-15T05:43:26.405Z,83.64
2022-09-15T05:45:55.224Z,83.84
2022-09-15T05:48:17.015Z,83.89
2022-09-15T05:50:39.578Z,83.98
2022-09-15T05:53:01.373Z,83.92
2022-09-15T05:55:23.221Z,83.87
2022-09-15T05:57:44.980Z,83.93
2022-09-15T06:00:07.899Z,84.02
2022-09-15T06:02:33.830Z,84.04
2022-09-15T06:04:55.631Z,84.12
2022-09-15T06:07:17.503Z,84.26
2022-09-15T06:09:39.488Z,83.98
2022-09-15T06:12:01.531Z,83.98
2022-09-15T06:14:23.950Z,83.95
2022-09-15T06:16:45.899Z,83.96
2022-09-15T06:19:07.784Z,83.95
2022-09-15T06:21:31.455Z,84.01
2022-09-15T06:23:55.569Z,84.03
2022-09-15T06:26:19.342Z,84.20
2022-09-15T06:28:48.449Z,84.01
2022-09-15T06:31:13.356Z,83.76
2022-09-15T06:33:35.143Z,83.89
2022-09-15T06:35:59.779Z,83.99
2022-09-15T06:38:21.677Z,83.42
2022-09-15T06:40:43.442Z,83.75
2022-09-15T06:43:05.514Z,83.50
2022-09-15T06:45:27.351Z,83.44
2022-09-15T06:48:13.358Z,83.36
2022-09-15T06:50:34.126Z,83.25
2022-09-15T06:52:55.951Z,83.23
2022-09-15T06:55:17.940Z,83.30
2022-09-15T06:57:39.722Z,82.98
2022-09-15T07:00:02.561Z,83.14
2022-09-15T07:02:24.563Z,83.04
2022-09-15T07:04:46.522Z,82.87
2022-09-15T07:07:08.579Z,82.64
2022-09-15T07:09:30.498Z,82.27
2022-09-15T07:11:52.821Z,82.15
2022-09-15T07:14:14.786Z,82.10
2022-09-15T07:16:36.682Z,81.88
2022-09-15T07:19:01.332Z,81.60
2022-09-15T07:21:23.077Z,81.33
2022-09-15T07:23:45.100Z,80.92
2022-09-15T07:26:09.926Z,80.55
2022-09-15T07:28:31.757Z,79.88
2022-09-15T07:30:53.583Z,80.14
2022-09-15T07:33:15.642Z,80.22
2022-09-15T07:35:45.134Z,80.09
2022-09-15T07:38:06.899Z,79.88
2022-09-15T07:40:29.240Z,79.90
2022-09-15T07:42:51.080Z,79.89
2022-09-15T07:45:12.952Z,79.52
2022-09-15T07:47:34.833Z,79.44
2022-09-15T07:49:56.640Z,79.04
2022-09-15T07:52:18.509Z,78.59
2022-09-15T07:54:40.349Z,77.15
2022-09-15T07:57:02.298Z,77.30
2022-09-15T07:59:24.095Z,76.86
2022-09-15T08:01:46.906Z,75.19
2022-09-15T08:04:08.771Z,75.27
2022-09-15T08:06:30.731Z,75.14
2022-09-15T08:08:57.737Z,75.29
2022-09-15T08:11:22.561Z,75.66
2022-09-15T08:13:49.621Z,75.89
2022-09-15T08:16:16.071Z,75.04
2022-09-15T08:18:42.341Z,75.18
2022-09-15T08:21:07.128Z,75.46
2022-09-15T08:23:28.924Z,75.73
2022-09-15T08:25:51.797Z,75.69
2022-09-15T08:28:14.109Z,75.54
2022-09-15T08:30:36.152Z,75.32
2022-09-15T08:32:58.005Z,75.06
2022-09-15T08:35:20.412Z,74.91
2022-09-15T08:37:42.282Z,74.76
2022-09-15T08:40:04.739Z,74.54
2022-09-15T08:42:29.134Z,73.28
2022-09-15T08:44:59.751Z,73.22
2022-09-15T08:47:46.748Z,72.09
2022-09-15T08:50:28.383Z,71.61
2022-09-15T08:53:02.341Z,71.15
2022-09-15T08:55:48.923Z,71.56
2022-09-15T08:58:20.351Z,71.92
2022-09-15T09:00:46.806Z,71.08
2022-09-15T09:04:15.366Z,69.99
2022-09-15T09:07:00.630Z,68.95
2022-09-15T09:09:48.394Z,69.27
2022-09-15T09:12:23.665Z,69.39
2022-09-15T09:15:43.381Z,69.94
2022-09-15T09:18:41.885Z,69.76
2022-09-15T09:21:22.343Z,69.77
2022-09-15T09:23:54.258Z,70.12
2022-09-15T09:26:16.651Z,69.47
2022-09-15T09:29:08.286Z,68.32
2022-09-15T09:31:30.249Z,68.08
2022-09-15T09:34:06.191Z,68.29
2022-09-15T09:36:28.339Z,68.52
2022-09-15T09:38:51.042Z,68.42
2022-09-15T09:41:25.326Z,68.03
2022-09-15T09:43:49.943Z,68.77
2022-09-15T09:46:17.933Z,69.37
2022-09-15T09:48:46.445Z,69.40
2022-09-15T09:51:59.917Z,69.72
2022-09-15T09:54:27.265Z,68.40
2022-09-15T09:56:52.016Z,67.55
2022-09-15T09:59:43.246Z,68.45
2022-09-15T10:02:11.126Z,67.90
2022-09-15T10:04:32.928Z,68.23
2022-09-15T10:06:56.446Z,68.10
2022-09-15T10:09:19.932Z,67.50
2022-09-15T10:11:52.147Z,66.74
2022-09-15T10:14:42.006Z,66.89
2022-09-15T10:17:15.527Z,67.02
2022-09-15T10:19:47.969Z,65.91
2022-09-15T10:22:33.553Z,64.72
2022-09-15T10:24:55.467Z,64.39
2022-09-15T10:27:34.870Z,64.99
2022-09-15T10:30:16.304Z,63.87
2022-09-15T10:32:38.881Z,64.11
2022-09-15T10:35:11.504Z,60.67
2022-09-15T10:38:11.626Z,62.27
2022-09-15T10:40:54.101Z,61.34
2022-09-15T10:43:42.490Z,62.87
2022-09-15T10:46:39.260Z,62.89
2022-09-15T10:49:37.348Z,63.66
2022-09-15T10:52:34.187Z,64.84
2022-09-15T10:55:52.638Z,65.53
2022-09-15T10:58:43.536Z,65.42
2022-09-15T11:01:29.076Z,66.10
2022-09-15T11:04:15.533Z,66.13
2022-09-15T11:06:51.639Z,66.73
2022-09-15T11:09:13.410Z,66.98
2022-09-15T11:11:54.597Z,66.35
2022-09-15T11:14:44.160Z,66.72
2022-09-15T11:17:37.511Z,66.54
2022-09-15T11:20:21.953Z,67.30
2022-09-15T11:22:58.222Z,66.96
2022-09-15T11:25:25.699Z,67.13
2022-09-15T11:27:53.986Z,67.31
2022-09-15T11:30:29.602Z,66.49
2022-09-15T11:33:13.179Z,66.67
2022-09-15T11:35:45.190Z,66.97
2022-09-15T11:38:32.093Z,67.26
2022-09-15T11:41:02.942Z,66.74
2022-09-15T11:43:37.633Z,66.71
2022-09-15T11:46:25.294Z,66.90
2022-09-15T11:49:08.769Z,66.37
2022-09-15T11:51:41.884Z,66.66
2022-09-15T11:54:21.295Z,66.38
2022-09-15T11:56:47.294Z,65.17
2022-09-15T11:59:39.575Z,64.36
2022-09-15T12:02:39.197Z,63.04
2022-09-15T12:05:15.053Z,62.65
2022-09-15T12:07:59.702Z,62.73
2022-09-15T12:10:31.310Z,60.92
2022-09-15T12:12:54.381Z,61.00
2022-09-15T12:15:27.119Z,61.23
2022-09-15T12:18:06.636Z,61.07
2022-09-15T12:20:53.426Z,59.30
2022-09-15T12:23:25.369Z,59.61
2022-09-15T12:26:17.688Z,57.10
2022-09-15T12:28:54.180Z,57.43
2022-09-15T12:31:40.468Z,58.11
2022-09-15T12:34:24.773Z,57.68
2022-09-15T12:36:52.970Z,56.73
2022-09-15T12:39:43.440Z,56.73
2022-09-15T12:42:21.334Z,57.60
2022-09-15T12:44:44.992Z,56.81
2022-09-15T12:47:21.744Z,57.59
2022-09-15T12:49:48.118Z,56.88
2022-09-15T12:52:12.106Z,56.99
2022-09-15T12:54:38.714Z,54.07
2022-09-15T12:57:02.312Z,51.66
2022-09-15T12:59:28.021Z,51.71
2022-09-15T13:01:50.844Z,52.86
2022-09-15T13:04:43.601Z,49.16
2022-09-15T13:07:21.124Z,47.84
2022-09-15T13:09:45.604Z,46.16
2022-09-15T13:12:08.147Z,44.70
2022-09-15T13:14:42.071Z,44.43
2022-09-15T13:17:22.780Z,43.90
2022-09-15T13:19:50.200Z,43.91
2022-09-15T13:22:16.506Z,44.60
2022-09-15T13:25:05.813Z,44.68
2022-09-15T13:27:45.197Z,41.26
2022-09-15T13:30:44.254Z,40.94
2022-09-15T13:40:05.134Z,41.73
2022-09-15T13:43:40.835Z,42.48
2022-09-15T13:46:31.177Z,41.34
2022-09-15T13:48:59.106Z,40.21
2022-09-15T13:51:29.961Z,41.36
2022-09-15T13:54:06.180Z,40.71
2022-09-15T13:56:33.782Z,40.98
2022-09-15T13:59:14.122Z,41.10
2022-09-15T14:01:40.674Z,42.02
2022-09-15T14:04:12.719Z,40.29
2022-09-15T14:06:39.212Z,40.63
2022-09-15T14:09:13.562Z,40.78
2022-09-15T14:11:38.163Z,41.67
2022-09-15T14:14:00.916Z,41.21
2022-09-15T14:16:33.923Z,41.56
2022-09-15T14:18:58.601Z,41.23
2022-09-15T14:21:23.299Z,41.41
2022-09-15T14:23:52.061Z,42.48
2022-09-15T14:26:18.693Z,43.25
2022-09-15T14:28:48.453Z,42.95
2022-09-15T14:31:10.441Z,43.13
2022-09-15T14:33:38.278Z,43.33
2022-09-15T14:36:00.445Z,43.97
2022-09-15T14:38:25.837Z,45.21
2022-09-15T14:40:53.398Z,44.62
2022-09-15T14:43:35.861Z,44.66
2022-09-15T14:46:18.477Z,44.53
2022-09-15T14:48:40.369Z,44.86
2022-09-15T14:51:08.783Z,45.52
2022-09-15T14:53:38.103Z,46.02
2022-09-15T14:56:15.166Z,45.63
2022-09-15T14:58:52.804Z,46.52
2022-09-15T15:01:30.492Z,46.69
2022-09-15T15:04:19.338Z,46.08
2022-09-15T15:06:55.887Z,46.18
2022-09-15T15:09:38.935Z,46.30
2022-09-15T15:12:14.535Z,46.20
2022-09-15T15:14:36.803Z,47.14
2022-09-15T15:17:05.848Z,46.91
2022-09-15T15:19:41.282Z,46.93
2022-09-15T15:22:13.984Z,47.15
2022-09-15T15:24:42.962Z,47.61
2022-09-15T15:27:33.241Z,48.36
2022-09-15T15:29:55.086Z,48.72
2022-09-15T15:32:22.275Z,48.69
2022-09-15T15:34:53.665Z,48.86
2022-09-15T15:37:27.589Z,48.89
2022-09-15T15:39:49.704Z,49.24
2022-09-15T15:42:16.237Z,49.20
2022-09-15T15:44:38.161Z,49.63
2022-09-15T15:47:23.776Z,50.03
2022-09-15T15:50:11.880Z,50.51
2022-09-15T15:52:27.366Z,50.21
2022-09-15T15:54:49.123Z,50.56
2022-09-15T15:57:30.310Z,50.54
2022-09-15T15:59:59.421Z,50.71
2022-09-15T16:02:23.497Z,50.78
2022-09-15T16:04:45.324Z,51.08
2022-09-15T16:07:16.606Z,50.58
2022-09-15T16:09:38.896Z,50.30
2022-09-15T16:12:00.926Z,50.88
2022-09-15T16:14:22.962Z,51.36
2022-09-15T16:16:45.017Z,50.82
2022-09-15T16:19:07.861Z,51.01
2022-09-15T16:21:38.812Z,50.98
2022-09-15T16:24:00.584Z,51.59
2022-09-15T16:26:24.963Z,51.61
2022-09-15T16:28:46.935Z,51.44
2022-09-15T16:31:13.163Z,51.49
2022-09-15T16:33:38.086Z,51.71
2022-09-15T16:36:06.909Z,52.01
2022-09-15T16:38:28.729Z,51.18
2022-09-15T16:40:51.264Z,51.14
2022-09-15T16:43:16.308Z,51.72
2022-09-15T16:45:40.835Z,52.32
2022-09-15T16:48:04.050Z,52.36
2022-09-15T16:50:26.765Z,52.49
2022-09-15T16:52:48.674Z,52.65
2022-09-15T16:55:27.239Z,52.38
2022-09-15T16:57:49.877Z,53.04
2022-09-15T17:00:12.842Z,53.42
2022-09-15T17:02:34.733Z,53.49
2022-09-15T17:04:56.496Z,53.51
2022-09-15T17:07:18.609Z,53.60
2022-09-15T17:09:40.916Z,54.01
2022-09-15T17:12:04.200Z,53.95
2022-09-15T17:14:26.018Z,54.13
2022-09-15T17:16:52.672Z,54.14
2022-09-15T17:19:14.462Z,54.54
2022-09-15T17:21:36.671Z,54.81
2022-09-15T17:23:58.486Z,54.96
2022-09-15T17:26:28.838Z,55.32
2022-09-15T17:28:52.912Z,55.47
2022-09-15T17:31:20.533Z,55.74
2022-09-15T17:33:43.776Z,55.76
2022-09-15T17:36:05.997Z,55.97
2022-09-15T17:38:28.111Z,55.81
2022-09-15T17:40:51.331Z,56.27
2022-09-15T17:43:23.203Z,56.37
2022-09-15T17:45:45.691Z,56.71
2022-09-15T17:48:07.700Z,57.23
2022-09-15T17:50:33.650Z,57.63
2022-09-15T17:52:56.463Z,57.86
2022-09-15T17:55:27.743Z,58.13
2022-09-15T17:57:50.474Z,58.38
2022-09-15T18:00:14.152Z,58.76
2022-09-15T18:02:36.129Z,58.89
2022-09-15T18:04:58.286Z,59.35
2022-09-15T18:07:20.208Z,59.78
2022-09-15T18:09:42.130Z,59.91
2022-09-15T18:12:04.431Z,60.10
2022-09-15T18:14:26.158Z,60.35
2022-09-15T18:16:48.018Z,60.56
2022-09-15T18:19:09.820Z,60.91
2022-09-15T18:21:31.740Z,61.29
2022-09-15T18:23:53.618Z,61.35
2022-09-15T18:26:15.501Z,61.36
2022-09-15T18:28:37.257Z,61.36
2022-09-15T18:30:59.071Z,61.54
2022-09-15T18:33:24.554Z,61.80
2022-09-15T18:35:49.137Z,61.98
2022-09-15T18:38:11.663Z,61.94
2022-09-15T18:40:33.703Z,61.95
2022-09-15T18:42:56.593Z,61.96
2022-09-15T18:45:19.980Z,62.21
2022-09-15T18:47:44.953Z,62.28
2022-09-15T18:50:07.349Z,62.38
2022-09-15T18:52:29.493Z,62.71
2022-09-15T18:54:52.354Z,62.75
2022-09-15T18:57:14.186Z,62.73
2022-09-15T18:59:36.014Z,62.89
2022-09-15T19:01:57.903Z,63.11
2022-09-15T19:04:19.749Z,63.00
2022-09-15T19:06:41.927Z,63.20
2022-09-15T19:09:03.857Z,63.05
2022-09-15T19:11:28.851Z,63.15
2022-09-15T19:13:53.467Z,63.19
2022-09-15T19:16:15.454Z,63.74
2022-09-15T19:18:37.984Z,63.64
2022-09-15T19:21:11.780Z,63.63
2022-09-15T19:23:35.978Z,63.83
2022-09-15T19:25:57.794Z,63.75
2022-09-15T19:28:19.591Z,63.85
2022-09-15T19:30:41.354Z,63.96
2022-09-15T19:33:03.398Z,64.29
2022-09-15T19:35:25.231Z,63.94
2022-09-15T19:37:47.354Z,64.12
2022-09-15T19:40:13.965Z,64.25
2022-09-15T19:42:38.519Z,64.45
2022-09-15T19:45:00.249Z,64.32
2022-09-15T19:47:22.064Z,64.41
2022-09-15T19:49:44.281Z,64.40
2022-09-15T19:52:06.593Z,64.55
2022-09-15T19:54:30.977Z,64.57
2022-09-15T19:56:53.149Z,64.48
2022-09-15T19:59:15.070Z,64.50
2022-09-15T20:01:37.109Z,64.34
2022-09-15T20:03:59.466Z,64.48
2022-09-15T20:06:22.111Z,64.44
2022-09-15T20:08:45.806Z,64.57
2022-09-15T20:11:09.297Z,64.55
2022-09-15T20:13:31.404Z,64.79
2022-09-15T20:16:02.689Z,64.68
2022-09-15T20:18:25.431Z,64.61
2022-09-15T20:20:47.169Z,64.70
2022-09-15T20:23:09.097Z,64.82
2022-09-15T20:25:30.973Z,64.98
2022-09-15T20:27:52.981Z,65.11
2022-09-15T20:30:14.891Z,65.03
2022-09-15T20:32:36.714Z,64.98
2022-09-15T20:34:58.848Z,65.04
2022-09-15T20:37:22.428Z,65.32
2022-09-15T20:39:47.931Z,65.12
2022-09-15T20:42:09.776Z,65.47
2022-09-15T20:44:31.551Z,65.43
2022-09-15T20:46:53.372Z,65.58
2022-09-15T20:49:15.801Z,65.63
2022-09-15T20:51:37.574Z,65.77
2022-09-15T20:54:02.092Z,65.74
2022-09-15T20:56:28.582Z,65.76
2022-09-15T20:58:55.184Z,66.33
2022-09-15T21:01:24.570Z,66.31
2022-09-15T21:03:47.862Z,66.42
2022-09-15T21:06:14.407Z,66.58
2022-09-15T21:08:37.676Z,66.46
2022-09-15T21:10:59.442Z,66.79
2022-09-15T21:13:24.688Z,67.06
2022-09-15T21:16:02.405Z,67.04
2022-09-15T21:18:35.623Z,67.31
2022-09-15T21:21:10.272Z,67.39
2022-09-15T21:23:40.278Z,67.54
2022-09-15T21:26:07.408Z,67.48
2022-09-15T21:28:30.454Z,67.81
2022-09-15T21:30:53.651Z,67.66
2022-09-15T21:33:15.573Z,67.71
2022-09-15T21:35:37.401Z,68.14
2022-09-15T21:38:00.751Z,68.33
2022-09-15T21:40:22.707Z,68.51
2022-09-15T21:42:44.484Z,68.93
2022-09-15T21:45:07.448Z,68.92
2022-09-15T21:47:30.098Z,68.80
2022-09-15T21:49:51.867Z,68.66
2022-09-15T21:52:13.606Z,68.73
2022-09-15T21:54:35.339Z,68.65
2022-09-15T21:56:57.479Z,68.78
2022-09-15T21:59:19.280Z,69.22
2022-09-15T22:01:41.648Z,69.55
2022-09-15T22:04:10.416Z,69.61
2022-09-15T22:06:35.909Z,69.61
2022-09-15T22:09:00.004Z,69.51
2022-09-15T22:11:23.332Z,69.51
2022-09-15T22:13:45.039Z,69.62
2022-09-15T22:16:17.870Z,69.44
2022-09-15T22:18:41.793Z,69.27
2022-09-15T22:21:22.422Z,69.52
2022-09-15T22:23:46.557Z,69.48
2022-09-15T22:26:16.229Z,69.50
2022-09-15T22:28:39.058Z,69.08
2022-09-15T22:31:03.530Z,69.57
2022-09-15T22:33:25.766Z,69.37
2022-09-15T22:35:47.732Z,69.21
2022-09-15T22:38:09.498Z,69.41
2022-09-15T22:40:31.347Z,69.83
2022-09-15T22:42:53.153Z,69.71
2022-09-15T22:45:15.088Z,69.48
2022-09-15T22:47:36.905Z,69.47
2022-09-15T22:49:58.664Z,69.50
2022-09-15T22:52:21.222Z,69.48
2022-09-15T22:54:43.010Z,69.62
2022-09-15T22:57:05.128Z,69.49
2022-09-15T22:59:27.788Z,70.09
2022-09-15T23:01:49.677Z,70.01
2022-09-15T23:04:11.602Z,70.04
2022-09-15T23:06:34.799Z,70.17
2022-09-15T23:09:00.591Z,70.68
2022-09-15T23:11:24.401Z,70.92
2022-09-15T23:13:46.737Z,70.86
2022-09-15T23:16:09.733Z,71.12
2022-09-15T23:18:32.498Z,70.89
2022-09-15T23:21:09.603Z,71.60
2022-09-15T23:23:31.418Z,71.58
2022-09-15T23:25:53.245Z,71.69
2022-09-15T23:28:14.964Z,71.96
2022-09-15T23:30:38.699Z,72.22
2022-09-15T23:33:00.512Z,72.02
2022-09-15T23:35:22.253Z,72.28
2022-09-15T23:37:44.229Z,72.47
2022-09-15T23:40:06.442Z,72.65
2022-09-15T23:42:28.220Z,72.76
2022-09-15T23:44:50.010Z,72.88
2022-09-15T23:47:11.762Z,72.83
2022-09-15T23:49:33.518Z,72.63
2022-09-15T23:51:55.289Z,72.52
2022-09-15T23:54:17.221Z,72.84
2022-09-15T23:56:39.128Z,72.41
2022-09-15T23:59:00.952Z,72.60
